createdAt,value
2019-05-23T00:02:47.209Z,12.10
2019-05-23T00:05:38.147Z,12.10
2019-05-23T00:08:29.540Z,12.10
2019-05-23T00:11:21.835Z,12.00
2019-05-23T00:14:05.448Z,11.90
2019-05-23T00:16:36.482Z,11.90
2019-05-23T00:19:07.867Z,11.90
2019-05-23T00:21:39.363Z,12.00
2019-05-23T00:24:10.874Z,11.90
2019-05-23T00:26:42.871Z,12.00
2019-05-23T00:29:15.195Z,12.10
2019-05-23T00:31:54.674Z,12.00
2019-05-23T00:34:25.619Z,12.00
2019-05-23T00:36:56.397Z,11.90
2019-05-23T00:39:27.202Z,11.90
2019-05-23T00:41:58.068Z,11.90
2019-05-23T00:44:29.071Z,11.90
2019-05-23T00:46:59.846Z,11.90
2019-05-23T00:49:30.938Z,11.90
2019-05-23T00:52:01.157Z,11.90
2019-05-23T00:54:32.161Z,11.90
2019-05-23T00:57:03.559Z,11.90
2019-05-23T00:59:34.054Z,11.90
2019-05-23T01:02:05.906Z,11.90
2019-05-23T01:04:37.465Z,11.90
2019-05-23T01:07:08.319Z,11.90
2019-05-23T01:09:39.903Z,11.90
2019-05-23T01:12:11.016Z,11.80
2019-05-23T01:14:41.625Z,11.90
2019-05-23T01:17:12.080Z,11.90
2019-05-23T01:19:42.268Z,11.90
2019-05-23T01:22:13.595Z,11.80
2019-05-23T01:24:46.788Z,11.80
2019-05-23T01:27:17.269Z,11.80
2019-05-23T01:29:50.188Z,11.70
2019-05-23T01:32:26.482Z,11.70
2019-05-23T01:34:57.805Z,11.70
2019-05-23T01:37:27.879Z,11.70
2019-05-23T01:39:58.336Z,11.70
2019-05-23T01:42:29.337Z,11.60
2019-05-23T01:45:02.491Z,11.60
2019-05-23T01:47:34.363Z,11.50
2019-05-23T01:50:05.369Z,11.60
2019-05-23T01:52:36.701Z,11.60
2019-05-23T01:55:08.096Z,11.70
2019-05-23T01:57:39.641Z,11.60
2019-05-23T02:00:12.135Z,11.60
2019-05-23T02:02:43.271Z,11.60
2019-05-23T02:05:14.068Z,11.50
2019-05-23T02:07:44.773Z,11.50
2019-05-23T02:10:16.953Z,11.40
2019-05-23T02:12:47.655Z,11.50
2019-05-23T02:15:18.126Z,11.50
2019-05-23T02:17:49.166Z,11.50
2019-05-23T02:20:22.383Z,11.40
2019-05-23T02:22:52.928Z,11.40
2019-05-23T02:25:24.586Z,11.50
2019-05-23T02:27:55.627Z,11.40
2019-05-23T02:30:35.699Z,11.40
2019-05-23T02:32:58.379Z,11.40
2019-05-23T02:35:30.101Z,11.50
2019-05-23T02:38:20.793Z,11.50
2019-05-23T02:41:05.448Z,11.50
2019-05-23T02:43:36.911Z,11.50
2019-05-23T02:46:14.287Z,11.50
2019-05-23T02:48:46.313Z,11.30
2019-05-23T02:51:23.867Z,11.30
2019-05-23T02:53:55.717Z,11.30
2019-05-23T02:56:28.883Z,11.30
2019-05-23T02:59:13.491Z,11.30
2019-05-23T03:02:14.622Z,11.40
2019-05-23T03:04:45.551Z,11.40
2019-05-23T03:07:19.295Z,11.40
2019-05-23T03:09:51.066Z,11.30
2019-05-23T03:12:25.262Z,11.20
2019-05-23T03:14:56.698Z,11.20
2019-05-23T03:17:28.879Z,11.20
2019-05-23T03:20:02.954Z,11.30
2019-05-23T03:22:42.489Z,11.30
2019-05-23T03:25:29.247Z,11.30
2019-05-23T03:28:01.980Z,11.30
2019-05-23T03:30:47.794Z,11.30
2019-05-23T03:33:20.618Z,11.30
2019-05-23T03:35:52.334Z,11.30
2019-05-23T03:38:23.179Z,11.40
2019-05-23T03:40:54.535Z,11.40
2019-05-23T03:43:25.651Z,11.30
2019-05-23T03:46:02.108Z,11.20
2019-05-23T03:48:33.689Z,11.20
2019-05-23T03:51:04.867Z,11.20
2019-05-23T03:53:35.804Z,11.30
2019-05-23T03:56:07.884Z,11.30
2019-05-23T03:58:39.164Z,11.30
2019-05-23T04:01:11.643Z,11.20
2019-05-23T04:03:45.082Z,11.20
2019-05-23T04:06:16.054Z,11.20
2019-05-23T04:08:46.913Z,11.30
2019-05-23T04:11:18.499Z,11.30
2019-05-23T04:13:50.140Z,11.40
2019-05-23T04:16:21.833Z,11.50
2019-05-23T04:18:52.407Z,11.40
2019-05-23T04:21:23.146Z,11.50
2019-05-23T04:23:54.324Z,11.40
2019-05-23T04:26:24.570Z,11.40
2019-05-23T04:28:55.088Z,11.30
2019-05-23T04:31:25.178Z,11.20
2019-05-23T04:33:55.447Z,11.20
2019-05-23T04:36:25.795Z,11.30
2019-05-23T04:38:55.909Z,11.20
2019-05-23T04:41:26.188Z,11.20
2019-05-23T04:43:56.283Z,11.30
2019-05-23T04:46:27.295Z,11.30
2019-05-23T04:48:58.423Z,11.30
2019-05-23T04:51:28.869Z,11.40
2019-05-23T04:53:59.615Z,11.20
2019-05-23T04:56:30.489Z,11.30
2019-05-23T04:59:02.089Z,11.30
2019-05-23T05:01:32.995Z,11.50
2019-05-23T05:04:04.366Z,11.60
2019-05-23T05:06:35.037Z,11.60
2019-05-23T05:09:08.376Z,11.50
2019-05-23T05:11:39.089Z,11.40
2019-05-23T05:14:10.058Z,11.40
2019-05-23T05:16:40.731Z,11.50
2019-05-23T05:19:11.246Z,11.60
2019-05-23T05:21:41.574Z,11.50
2019-05-23T05:24:11.896Z,11.60
2019-05-23T05:26:42.288Z,11.60
2019-05-23T05:29:12.747Z,11.70
2019-05-23T05:31:42.869Z,11.40
2019-05-23T05:34:14.847Z,11.50
2019-05-23T05:36:45.207Z,11.40
2019-05-23T05:39:15.929Z,11.40
2019-05-23T05:41:46.634Z,11.40
2019-05-23T05:44:17.223Z,11.40
2019-05-23T05:46:47.940Z,11.40
2019-05-23T05:49:18.196Z,11.40
2019-05-23T05:51:48.692Z,11.60
2019-05-23T05:54:18.966Z,11.70
2019-05-23T05:56:49.546Z,11.70
2019-05-23T05:59:20.218Z,11.60
2019-05-23T06:01:50.794Z,11.60
2019-05-23T06:04:21.377Z,11.70
2019-05-23T06:07:09.159Z,11.70
2019-05-23T06:09:40.372Z,11.60
2019-05-23T06:12:11.514Z,11.50
2019-05-23T06:14:46.429Z,11.40
2019-05-23T06:17:17.079Z,11.40
2019-05-23T06:19:47.622Z,11.30
2019-05-23T06:22:20.541Z,11.30
2019-05-23T06:24:54.686Z,11.30
2019-05-23T06:27:23.285Z,11.20
2019-05-23T06:29:54.027Z,11.20
2019-05-23T06:32:26.710Z,11.60
2019-05-23T06:34:57.939Z,12.00
2019-05-23T06:37:28.294Z,12.00
2019-05-23T06:39:58.479Z,12.30
2019-05-23T06:42:29.191Z,12.40
2019-05-23T06:44:59.882Z,12.50
2019-05-23T06:47:32.356Z,12.70
2019-05-23T06:50:02.540Z,13.20
2019-05-23T06:52:33.017Z,13.30
2019-05-23T06:55:03.458Z,13.30
2019-05-23T06:57:34.227Z,12.90
2019-05-23T07:00:05.352Z,12.80
2019-05-23T07:02:35.665Z,12.90
2019-05-23T07:05:06.235Z,12.80
2019-05-23T07:07:37.295Z,13.00
2019-05-23T07:10:08.363Z,13.40
2019-05-23T07:12:38.450Z,13.80
2019-05-23T07:15:10.320Z,13.90
2019-05-23T07:17:40.639Z,13.80
2019-05-23T07:20:12.073Z,14.00
2019-05-23T07:22:42.338Z,13.90
2019-05-23T07:25:13.281Z,13.70
2019-05-23T07:27:43.730Z,14.00
2019-05-23T07:30:18.804Z,14.10
2019-05-23T07:32:49.389Z,14.50
2019-05-23T07:35:20.676Z,14.50
2019-05-23T07:37:51.080Z,14.60
2019-05-23T07:40:21.451Z,14.50
2019-05-23T07:42:52.065Z,14.80
2019-05-23T07:45:27.122Z,14.60
2019-05-23T07:47:57.652Z,14.60
2019-05-23T07:50:28.226Z,14.90
2019-05-23T07:52:59.162Z,14.90
2019-05-23T07:55:36.282Z,14.70
2019-05-23T07:58:07.541Z,14.60
2019-05-23T08:00:41.518Z,14.90
2019-05-23T08:03:12.256Z,15.00
2019-05-23T08:05:42.650Z,15.00
2019-05-23T08:08:13.206Z,15.10
2019-05-23T08:10:43.824Z,15.20
2019-05-23T08:13:14.069Z,15.40
2019-05-23T08:15:46.275Z,15.50
2019-05-23T08:18:16.576Z,15.60
2019-05-23T08:20:46.746Z,15.80
2019-05-23T08:23:17.025Z,15.90
2019-05-23T08:25:47.677Z,16.20
2019-05-23T08:28:17.927Z,15.90
2019-05-23T08:30:48.676Z,15.60
2019-05-23T08:33:19.236Z,15.30
2019-05-23T08:35:49.986Z,15.40
2019-05-23T08:38:21.054Z,15.40
2019-05-23T08:40:51.391Z,15.90
2019-05-23T08:43:21.649Z,16.50
2019-05-23T08:45:52.392Z,16.30
2019-05-23T08:48:23.031Z,16.20
2019-05-23T08:50:53.411Z,16.20
2019-05-23T08:53:24.727Z,16.40
2019-05-23T08:55:55.130Z,16.50
2019-05-23T08:58:25.610Z,16.30
2019-05-23T09:00:56.072Z,16.10
2019-05-23T09:03:28.776Z,16.20
2019-05-23T09:06:00.151Z,16.60
2019-05-23T09:08:31.094Z,16.30
2019-05-23T09:11:01.729Z,16.40
2019-05-23T09:13:32.486Z,16.20
2019-05-23T09:16:03.446Z,16.10
2019-05-23T09:18:33.875Z,16.30
2019-05-23T09:21:04.467Z,16.60
2019-05-23T09:23:34.653Z,16.60
2019-05-23T09:26:05.373Z,17.20
2019-05-23T09:28:35.558Z,17.50
2019-05-23T09:31:05.762Z,17.50
2019-05-23T09:33:36.186Z,17.40
2019-05-23T09:36:06.983Z,17.00
2019-05-23T09:38:37.077Z,17.20
2019-05-23T09:41:07.188Z,17.30
2019-05-23T09:43:37.595Z,17.40
2019-05-23T09:46:07.789Z,17.20
2019-05-23T09:48:37.980Z,16.80
2019-05-23T09:51:08.322Z,16.80
2019-05-23T09:53:38.532Z,16.70
2019-05-23T09:56:08.884Z,17.10
2019-05-23T09:58:39.170Z,17.30
2019-05-23T10:01:09.951Z,16.90
2019-05-23T10:03:40.649Z,17.10
2019-05-23T10:06:11.204Z,17.10
2019-05-23T10:08:41.699Z,17.20
2019-05-23T10:11:12.131Z,17.20
2019-05-23T10:13:42.597Z,17.20
2019-05-23T10:16:14.054Z,17.60
2019-05-23T10:18:44.948Z,17.50
2019-05-23T10:21:15.198Z,17.60
2019-05-23T10:23:45.332Z,17.90
2019-05-23T10:26:15.543Z,17.90
2019-05-23T10:28:45.935Z,17.60
2019-05-23T10:31:16.463Z,17.30
2019-05-23T10:33:46.756Z,17.40
2019-05-23T10:36:16.970Z,18.00
2019-05-23T10:38:47.577Z,18.20
2019-05-23T10:41:17.837Z,18.50
2019-05-23T10:43:48.308Z,18.40
2019-05-23T10:46:18.579Z,18.40
2019-05-23T10:48:49.295Z,18.80
2019-05-23T10:51:19.424Z,18.90
2019-05-23T10:53:49.674Z,18.60
2019-05-23T10:56:20.997Z,18.30
2019-05-23T10:58:51.659Z,18.40
2019-05-23T11:01:22.340Z,18.10
2019-05-23T11:03:53.755Z,18.10
2019-05-23T11:06:24.006Z,18.50
2019-05-23T11:08:56.303Z,18.70
2019-05-23T11:11:27.299Z,18.90
2019-05-23T11:13:57.769Z,18.80
2019-05-23T11:16:29.450Z,18.40
2019-05-23T11:18:59.585Z,18.30
2019-05-23T11:21:29.732Z,18.20
2019-05-23T11:24:00.031Z,18.70
2019-05-23T11:26:30.291Z,18.80
2019-05-23T11:29:00.582Z,18.80
2019-05-23T11:31:30.939Z,18.60
2019-05-23T11:34:01.520Z,18.30
2019-05-23T11:36:36.023Z,18.30
2019-05-23T11:39:07.044Z,18.20
2019-05-23T11:41:37.623Z,18.20
2019-05-23T11:44:08.126Z,18.70
2019-05-23T11:46:39.354Z,18.60
2019-05-23T11:49:09.439Z,18.50
2019-05-23T11:51:40.247Z,18.60
2019-05-23T11:54:10.641Z,18.70
2019-05-23T11:56:41.528Z,18.80
2019-05-23T11:59:11.899Z,18.80
2019-05-23T12:02:01.118Z,18.70
2019-05-23T12:04:35.615Z,18.60
2019-05-23T12:07:11.000Z,18.90
2019-05-23T12:09:41.254Z,19.00
2019-05-23T12:12:11.933Z,19.00
2019-05-23T12:14:42.586Z,18.70
2019-05-23T12:17:15.598Z,18.70
2019-05-23T12:19:46.096Z,19.10
2019-05-23T12:22:16.732Z,19.60
2019-05-23T12:24:47.025Z,19.60
2019-05-23T12:27:17.623Z,19.60
2019-05-23T12:29:48.536Z,19.60
2019-05-23T12:32:18.715Z,19.70
2019-05-23T12:35:08.537Z,19.90
2019-05-23T12:37:22.093Z,19.40
2019-05-23T12:39:52.672Z,19.40
2019-05-23T12:42:23.266Z,19.20
2019-05-23T12:44:53.374Z,19.20
2019-05-23T12:47:30.731Z,18.90
2019-05-23T12:50:05.975Z,19.20
2019-05-23T12:52:36.621Z,19.30
2019-05-23T12:55:06.960Z,19.60
2019-05-23T12:57:37.231Z,19.70
2019-05-23T13:00:12.387Z,19.60
2019-05-23T13:02:42.503Z,19.40
2019-05-23T13:05:12.942Z,19.40
2019-05-23T13:07:43.047Z,19.30
2019-05-23T13:10:14.637Z,19.30
2019-05-23T13:12:44.868Z,19.30
2019-05-23T13:15:15.533Z,19.50
2019-05-23T13:17:46.348Z,19.60
2019-05-23T13:20:16.743Z,19.80
2019-05-23T13:22:46.983Z,19.70
2019-05-23T13:25:17.622Z,20.10
2019-05-23T13:27:48.033Z,20.00
2019-05-23T13:30:18.735Z,20.10
2019-05-23T13:32:50.423Z,20.00
2019-05-23T13:35:20.949Z,19.90
2019-05-23T13:37:53.981Z,19.90
2019-05-23T13:40:23.905Z,20.10
2019-05-23T13:42:54.254Z,20.40
2019-05-23T13:45:25.348Z,20.50
2019-05-23T13:47:56.088Z,20.40
2019-05-23T13:50:26.994Z,20.40
2019-05-23T13:52:57.738Z,20.30
2019-05-23T13:55:28.273Z,20.20
2019-05-23T13:57:58.436Z,20.40
2019-05-23T14:00:30.440Z,20.50
2019-05-23T14:03:01.188Z,20.50
2019-05-23T14:05:32.596Z,20.50
2019-05-23T14:08:12.249Z,20.80
2019-05-23T14:10:35.058Z,20.30
2019-05-23T14:13:05.211Z,20.30
2019-05-23T14:15:42.133Z,20.30
2019-05-23T14:18:17.884Z,20.40
2019-05-23T14:20:48.598Z,20.50
2019-05-23T14:23:26.638Z,20.60
2019-05-23T14:25:57.760Z,20.90
2019-05-23T14:28:28.194Z,21.10
2019-05-23T14:31:04.067Z,20.60
2019-05-23T14:33:51.793Z,20.60
2019-05-23T14:36:35.086Z,20.70
2019-05-23T14:39:10.931Z,20.30
2019-05-23T14:41:47.420Z,20.60
2019-05-23T14:44:17.877Z,20.80
2019-05-23T14:47:06.559Z,20.90
2019-05-23T14:49:41.501Z,20.90
2019-05-23T14:52:20.475Z,20.20
2019-05-23T14:54:55.303Z,20.00
2019-05-23T14:57:25.733Z,20.20
2019-05-23T14:59:56.836Z,20.40
2019-05-23T15:02:27.518Z,20.60
2019-05-23T15:04:58.171Z,21.10
2019-05-23T15:07:29.199Z,20.90
2019-05-23T15:09:59.598Z,21.30
2019-05-23T15:12:29.932Z,21.10
2019-05-23T15:15:00.119Z,20.70
2019-05-23T15:17:30.195Z,20.70
2019-05-23T15:20:01.983Z,21.70
2019-05-23T15:22:32.371Z,22.00
2019-05-23T15:25:02.743Z,22.40
2019-05-23T15:27:33.914Z,22.70
2019-05-23T15:30:04.726Z,22.80
2019-05-23T15:32:34.901Z,22.90
2019-05-23T15:35:05.585Z,22.80
2019-05-23T15:37:36.025Z,23.50
2019-05-23T15:40:06.525Z,22.60
2019-05-23T15:42:37.106Z,22.60
2019-05-23T15:45:07.571Z,23.20
2019-05-23T15:47:37.987Z,22.60
2019-05-23T15:50:11.814Z,22.10
2019-05-23T15:52:53.913Z,22.30
2019-05-23T15:55:38.953Z,22.50
2019-05-23T15:58:31.332Z,23.10
2019-05-23T16:01:08.332Z,23.70
2019-05-23T16:03:51.239Z,24.80
2019-05-23T16:06:23.286Z,23.60
2019-05-23T16:08:53.798Z,22.90
2019-05-23T16:11:24.874Z,24.00
2019-05-23T16:13:55.232Z,24.50
2019-05-23T16:16:27.693Z,23.90
2019-05-23T16:18:58.163Z,24.30
2019-05-23T16:21:28.999Z,23.80
2019-05-23T16:23:59.990Z,23.10
2019-05-23T16:26:30.313Z,22.80
2019-05-23T16:29:00.482Z,22.50
2019-05-23T16:31:31.883Z,23.50
2019-05-23T16:34:03.371Z,23.90
2019-05-23T16:36:34.070Z,24.60
2019-05-23T16:39:06.731Z,23.40
2019-05-23T16:41:37.626Z,23.10
2019-05-23T16:44:07.956Z,22.80
2019-05-23T16:46:38.470Z,22.50
2019-05-23T16:49:09.126Z,21.80
2019-05-23T16:51:39.287Z,21.60
2019-05-23T16:54:09.782Z,20.90
2019-05-23T16:56:47.443Z,20.40
2019-05-23T16:59:23.186Z,20.10
2019-05-23T17:02:06.554Z,20.00
2019-05-23T17:05:08.478Z,19.60
2019-05-23T17:07:41.143Z,19.30
2019-05-23T17:10:16.774Z,18.80
2019-05-23T17:12:55.356Z,18.60
2019-05-23T17:15:50.376Z,18.50
2019-05-23T17:18:38.627Z,18.50
2019-05-23T17:21:19.280Z,18.70
2019-05-23T17:24:08.651Z,18.70
2019-05-23T17:27:10.486Z,18.60
2019-05-23T17:29:49.747Z,18.40
2019-05-23T17:32:24.554Z,18.50
2019-05-23T17:34:55.144Z,18.50
2019-05-23T17:37:26.693Z,18.50
2019-05-23T17:39:57.238Z,18.60
2019-05-23T17:42:28.478Z,18.50
2019-05-23T17:44:58.571Z,18.40
2019-05-23T17:47:30.263Z,18.50
2019-05-23T17:50:00.612Z,18.50
2019-05-23T17:52:31.264Z,18.50
2019-05-23T17:55:01.749Z,18.40
2019-05-23T17:57:32.028Z,18.50
2019-05-23T18:00:02.686Z,18.50
2019-05-23T18:02:33.650Z,18.40
2019-05-23T18:05:05.738Z,18.10
2019-05-23T18:07:36.718Z,18.00
2019-05-23T18:10:07.811Z,17.90
2019-05-23T18:12:38.221Z,17.70
2019-05-23T18:15:12.501Z,17.60
2019-05-23T18:17:43.692Z,17.50
2019-05-23T18:20:14.162Z,17.40
2019-05-23T18:22:44.459Z,17.40
2019-05-23T18:25:16.958Z,17.30
2019-05-23T18:27:47.503Z,17.20
2019-05-23T18:30:35.825Z,17.20
2019-05-23T18:33:07.006Z,17.20
2019-05-23T18:35:40.615Z,16.90
2019-05-23T18:38:11.748Z,16.80
2019-05-23T18:40:42.134Z,16.70
2019-05-23T18:43:13.490Z,16.50
2019-05-23T18:45:45.429Z,16.40
2019-05-23T18:48:16.154Z,16.30
2019-05-23T18:50:47.255Z,16.10
2019-05-23T18:53:18.006Z,15.90
2019-05-23T18:55:48.321Z,15.70
2019-05-23T18:58:20.606Z,15.60
2019-05-23T19:01:13.711Z,15.50
2019-05-23T19:04:47.467Z,15.40
2019-05-23T19:07:29.641Z,15.20
2019-05-23T19:10:12.592Z,15.00
2019-05-23T19:12:56.014Z,14.90
2019-05-23T19:15:38.893Z,14.80
2019-05-23T19:18:21.826Z,14.70
2019-05-23T19:21:04.228Z,14.60
2019-05-23T19:23:46.146Z,14.40
2019-05-23T19:26:28.243Z,14.30
2019-05-23T19:29:10.870Z,14.20
2019-05-23T19:31:54.008Z,14.10
2019-05-23T19:34:38.613Z,14.10
2019-05-23T19:39:52.074Z,14.00
2019-05-23T19:42:35.922Z,13.80
2019-05-23T19:45:18.685Z,13.80
2019-05-23T19:48:00.910Z,13.60
2019-05-23T19:50:43.640Z,13.60
2019-05-23T19:53:25.918Z,13.50
2019-05-23T19:56:08.481Z,13.40
2019-05-23T19:58:50.905Z,13.30
2019-05-23T20:04:34.421Z,13.30
2019-05-23T20:07:16.717Z,13.20
2019-05-23T20:09:59.944Z,13.10
2019-05-23T20:12:42.226Z,13.00
2019-05-23T20:15:24.786Z,13.00
2019-05-23T20:18:08.332Z,12.90
2019-05-23T20:20:50.688Z,12.80
2019-05-23T20:23:32.709Z,12.80
2019-05-23T20:26:14.505Z,12.70
2019-05-23T20:28:57.528Z,12.70
2019-05-23T20:31:39.837Z,12.70
2019-05-23T20:34:21.733Z,12.80
2019-05-23T20:37:04.394Z,12.80
2019-05-23T20:39:46.877Z,12.90
2019-05-23T20:42:28.864Z,12.90
2019-05-23T20:45:11.288Z,12.70
2019-05-23T20:47:53.921Z,12.60
2019-05-23T20:50:36.384Z,12.50
2019-05-23T20:53:19.226Z,12.50
2019-05-23T20:56:01.035Z,12.40
2019-05-23T20:58:43.067Z,12.30
2019-05-23T21:04:26.033Z,12.10
2019-05-23T21:07:08.447Z,12.00
2019-05-23T21:09:51.255Z,12.00
2019-05-23T21:12:33.370Z,11.80
2019-05-23T21:15:16.354Z,11.90
2019-05-23T21:17:59.315Z,11.90
2019-05-23T21:20:41.979Z,11.80
2019-05-23T21:23:24.046Z,11.80
2019-05-23T21:26:06.921Z,11.70
2019-05-23T21:28:49.149Z,11.60
2019-05-23T21:31:31.551Z,11.70
2019-05-23T21:34:14.549Z,11.70
2019-05-23T21:36:57.436Z,11.70
2019-05-23T21:39:39.930Z,11.70
2019-05-23T21:42:22.575Z,11.60
2019-05-23T21:45:05.161Z,11.50
2019-05-23T21:47:47.812Z,11.50
2019-05-23T21:50:30.288Z,11.40
2019-05-23T21:53:13.271Z,11.30
2019-05-23T21:55:55.996Z,11.40
2019-05-23T21:58:38.909Z,11.50
2019-05-23T22:01:39.842Z,11.40
2019-05-23T22:04:24.593Z,11.30
2019-05-23T22:07:08.053Z,11.20
2019-05-23T22:09:49.812Z,11.10
2019-05-23T22:12:32.697Z,11.20
2019-05-23T22:15:15.532Z,11.40
2019-05-23T22:17:57.415Z,11.20
2019-05-23T22:20:40.117Z,11.10
2019-05-23T22:23:24.103Z,10.90
2019-05-23T22:26:06.482Z,11.00
2019-05-23T22:28:49.137Z,11.10
2019-05-23T22:31:32.241Z,11.00
2019-05-23T22:34:33.841Z,11.00
2019-05-23T22:40:17.054Z,10.80
2019-05-23T22:42:58.889Z,10.60
2019-05-23T22:45:41.725Z,10.50
2019-05-23T22:48:24.491Z,10.40
2019-05-23T22:51:10.529Z,10.30
2019-05-23T22:53:55.252Z,10.40
2019-05-23T22:56:43.851Z,10.30
2019-05-23T22:59:30.051Z,10.30
2019-05-23T23:02:15.459Z,10.30
2019-05-23T23:04:47.182Z,10.40
2019-05-23T23:07:17.466Z,10.40
2019-05-23T23:09:47.749Z,10.40
2019-05-23T23:12:17.883Z,10.30
2019-05-23T23:14:49.414Z,10.30
2019-05-23T23:17:19.885Z,10.30
2019-05-23T23:19:50.354Z,10.30
2019-05-23T23:22:20.538Z,10.20
2019-05-23T23:24:51.226Z,10.20
2019-05-23T23:27:21.773Z,10.10
2019-05-23T23:29:52.478Z,10.00
2019-05-23T23:32:23.195Z,10.00
2019-05-23T23:34:53.414Z,10.10
2019-05-23T23:37:25.715Z,10.10
2019-05-23T23:39:55.973Z,10.00
2019-05-23T23:42:26.461Z,9.90
2019-05-23T23:45:14.863Z,9.90
2019-05-23T23:48:04.372Z,9.90
2019-05-23T23:50:52.471Z,9.80
2019-05-23T23:53:41.049Z,9.80
2019-05-23T23:56:30.601Z,9.80
2019-05-23T23:58:59.920Z,9.70
